Time;durP1;ratioP1;P1;durP2;ratioP2;P2;SDS_P1;SDS_P2;PMS_P1;PMS_P2;Temp;Humidity;BMP_temperature;BMP_pressure;BME280_temperature;BME280_humidity;BME280_pressure;Samples;Min_cycle;Max_cycle;Signal;HPM_P1;HPM_P2
2023/03/24 00:01:13;;;;;;;19.40;8.43;;;7.50;99.90;;;;;;5032173;28;20071;-76
2023/03/24 00:03:39;;;;;;;12.82;7.57;;;7.40;99.90;;;;;;5014189;28;20030;-75
2023/03/24 00:06:06;;;;;;;12.90;8.95;;;7.40;99.90;;;;;;5030359;28;20024;-75
2023/03/24 00:08:35;;;;;;;13.63;7.38;;;7.40;99.90;;;;;;5030677;28;20022;-76
2023/03/24 00:11:03;;;;;;;13.23;8.25;;;7.40;99.90;;;;;;5032026;28;20548;-74
2023/03/24 00:13:31;;;;;;;12.85;8.27;;;7.40;99.90;;;;;;5032197;28;20033;-74
2023/03/24 00:15:57;;;;;;;13.38;7.93;;;7.50;99.90;;;;;;5014195;28;20076;-74
2023/03/24 00:18:24;;;;;;;12.98;8.45;;;7.50;99.90;;;;;;5031942;28;20105;-76
2023/03/24 00:20:57;;;;;;;12.25;6.90;;;7.50;99.90;;;;;;5031880;28;20108;-75
2023/03/24 00:23:25;;;;;;;14.40;8.05;;;7.50;99.90;;;;;;5031957;28;20032;-74
2023/03/24 00:26:01;;;;;;;12.35;8.25;;;7.50;99.90;;;;;;5031766;28;20064;-75
2023/03/24 00:28:32;;;;;;;12.10;7.50;;;7.60;99.90;;;;;;5017331;28;20506;-75
2023/03/24 00:30:59;;;;;;;12.98;7.45;;;7.60;99.90;;;;;;5018158;28;20026;-74
2023/03/24 00:33:25;;;;;;;14.38;8.27;;;7.70;99.90;;;;;;5035879;28;20056;-76
2023/03/24 00:35:50;;;;;;;13.98;7.90;;;7.60;99.90;;;;;;5035822;28;20490;-75
2023/03/24 00:38:18;;;;;;;12.68;7.80;;;7.60;99.90;;;;;;5035229;28;20028;-75
2023/03/24 00:40:45;;;;;;;11.55;7.72;;;7.70;99.90;;;;;;5017857;28;20135;-76
2023/03/24 00:43:12;;;;;;;16.77;8.35;;;7.70;99.90;;;;;;5035649;28;20029;-76
2023/03/24 00:45:45;;;;;;;9.80;7.13;;;7.60;99.90;;;;;;5035265;28;20026;-75
2023/03/24 00:48:23;;;;;;;12.05;8.35;;;7.50;99.90;;;;;;5035192;28;20470;-75
2023/03/24 00:50:50;;;;;;;12.70;7.18;;;7.50;99.90;;;;;;5035326;28;20098;-75
2023/03/24 00:53:17;;;;;;;13.07;7.15;;;7.40;99.90;;;;;;5035388;28;20017;-75
2023/03/24 00:55:46;;;;;;;14.10;8.60;;;7.40;99.90;;;;;;5035184;28;20661;-75
2023/03/24 00:58:17;;;;;;;16.20;7.32;;;7.40;99.90;;;;;;5017066;28;20022;-74
2023/03/24 01:00:48;;;;;;;11.18;7.40;;;7.30;99.90;;;;;;5035335;28;20184;-74
2023/03/24 01:03:14;;;;;;;12.15;7.65;;;7.20;99.90;;;;;;5017474;28;20720;-76
2023/03/24 01:05:41;;;;;;;19.17;7.35;;;7.10;99.90;;;;;;5034776;28;20462;-75
2023/03/24 01:08:09;;;;;;;14.02;8.05;;;7.00;99.90;;;;;;5034646;28;20021;-76
2023/03/24 01:10:49;;;;;;;11.70;7.45;;;6.90;99.90;;;;;;5035029;28;20022;-75
2023/03/24 01:13:25;;;;;;;11.77;7.13;;;7.00;99.90;;;;;;5034064;28;20109;-75
2023/03/24 01:15:52;;;;;;;16.13;8.82;;;6.90;99.90;;;;;;5016982;28;20083;-75
2023/03/24 01:18:18;;;;;;;12.95;7.63;;;6.90;99.90;;;;;;5035036;28;20375;-74
2023/03/24 01:20:46;;;;;;;17.13;8.32;;;6.80;99.90;;;;;;5035542;28;20109;-74
2023/03/24 01:23:14;;;;;;;14.95;7.18;;;6.80;99.90;;;;;;5035433;28;20017;-75
2023/03/24 01:25:44;;;;;;;10.23;7.13;;;6.80;99.90;;;;;;5034789;28;20475;-75
2023/03/24 01:28:11;;;;;;;13.57;7.82;;;6.90;99.90;;;;;;5036225;28;20021;-75
2023/03/24 01:30:37;;;;;;;15.88;8.77;;;6.80;99.90;;;;;;5037853;28;20047;-74
2023/03/24 01:33:04;;;;;;;9.75;7.38;;;6.80;99.90;;;;;;5037103;28;20059;-75
2023/03/24 01:35:30;;;;;;;11.68;7.75;;;6.80;99.90;;;;;;5035265;28;20014;-74
2023/03/24 01:37:56;;;;;;;12.90;7.90;;;7.00;99.90;;;;;;5016384;28;20018;-74
2023/03/24 01:40:26;;;;;;;14.43;6.57;;;7.00;99.90;;;;;;5034714;28;20112;-75
2023/03/24 01:42:52;;;;;;;12.73;7.13;;;7.00;99.90;;;;;;5034569;28;20111;-75
2023/03/24 01:45:43;;;;;;;10.95;6.80;;;6.90;99.90;;;;;;5034589;28;20029;-75
2023/03/24 01:48:08;;;;;;;10.32;7.03;;;6.80;99.90;;;;;;5034466;28;20029;-74
2023/03/24 01:50:34;;;;;;;12.00;7.43;;;6.80;99.90;;;;;;5034237;28;20037;-74
2023/03/24 01:53:00;;;;;;;15.32;7.85;;;6.90;99.90;;;;;;5016915;28;20017;-74
2023/03/24 01:55:28;;;;;;;11.05;7.57;;;6.80;99.90;;;;;;5034068;28;20022;-74
2023/03/24 01:57:59;;;;;;;9.18;7.70;;;6.70;99.90;;;;;;5034135;28;20021;-74
2023/03/24 02:00:25;;;;;;;9.70;6.22;;;6.70;99.90;;;;;;5034343;28;20028;-76
2023/03/24 02:02:57;;;;;;;13.60;7.32;;;6.70;99.90;;;;;;5034176;28;20100;-75
2023/03/24 02:05:28;;;;;;;15.80;7.32;;;6.70;99.90;;;;;;5034029;28;20030;-74
2023/03/24 02:08:15;;;;;;;12.15;8.05;;;6.60;99.90;;;;;;5033752;28;20071;-74
2023/03/24 02:10:42;;;;;;;9.93;6.75;;;6.60;99.90;;;;;;5033853;28;20112;-75
2023/03/24 02:13:09;;;;;;;11.95;7.40;;;6.60;99.90;;;;;;5033953;28;20021;-75
2023/03/24 02:15:45;;;;;;;11.38;6.53;;;6.50;99.90;;;;;;5033608;28;20021;-74
2023/03/24 02:18:17;;;;;;;10.27;6.57;;;6.50;99.90;;;;;;5033618;28;20064;-74
2023/03/24 02:21:07;;;;;;;10.68;6.78;;;6.50;99.90;;;;;;5016017;28;20025;-75
2023/03/24 02:24:01;;;;;;;10.48;7.00;;;6.40;99.90;;;;;;5033874;28;20044;-74
2023/03/24 02:27:03;;;;;;;9.80;7.00;;;6.40;99.90;;;;;;5015806;28;20026;-74
2023/03/24 02:29:38;;;;;;;8.80;5.65;;;6.40;99.90;;;;;;4982578;28;20042;-74
2023/03/24 02:32:37;;;;;;;9.27;6.22;;;6.40;99.90;;;;;;5033632;28;20029;-75
2023/03/24 02:35:18;;;;;;;9.23;6.38;;;6.40;99.90;;;;;;5032189;28;20393;-75
2023/03/24 02:38:16;;;;;;;13.43;7.72;;;6.30;99.90;;;;;;5033001;28;20059;-74
2023/03/24 02:41:07;;;;;;;10.70;7.68;;;6.30;99.90;;;;;;4999884;28;20112;-74
2023/03/24 02:43:46;;;;;;;15.02;8.15;;;6.30;99.90;;;;;;5033394;28;20482;-74
2023/03/24 02:46:19;;;;;;;14.35;8.52;;;6.30;99.90;;;;;;5033173;28;20025;-74
2023/03/24 02:49:02;;;;;;;18.92;7.55;;;6.30;99.90;;;;;;5032579;28;20022;-76
2023/03/24 02:51:28;;;;;;;14.75;8.63;;;6.30;99.90;;;;;;5031450;28;20616;-75
2023/03/24 02:54:15;;;;;;;13.73;8.30;;;6.30;99.90;;;;;;5031589;28;20125;-74
2023/03/24 02:56:52;;;;;;;21.38;8.15;;;6.30;99.90;;;;;;5032818;28;20529;-75
2023/03/24 02:59:25;;;;;;;13.57;8.00;;;6.30;99.90;;;;;;5014983;28;20167;-75
2023/03/24 03:01:57;;;;;;;14.40;7.97;;;6.40;99.90;;;;;;5032892;28;20072;-75
2023/03/24 03:04:31;;;;;;;11.73;8.30;;;6.40;99.90;;;;;;5032511;28;20108;-74
2023/03/24 03:07:05;;;;;;;14.32;7.75;;;6.40;99.90;;;;;;5032975;28;20152;-75
2023/03/24 03:09:35;;;;;;;16.08;8.43;;;6.40;99.90;;;;;;5031256;28;20056;-75
2023/03/24 03:12:02;;;;;;;12.38;8.43;;;6.40;99.90;;;;;;5032797;28;20022;-74
2023/03/24 03:14:35;;;;;;;11.75;7.13;;;6.40;99.90;;;;;;5032544;28;20022;-74
2023/03/24 03:17:31;;;;;;;12.80;8.07;;;6.40;99.90;;;;;;5014635;28;20482;-74
2023/03/24 03:20:07;;;;;;;15.23;8.27;;;6.50;99.90;;;;;;5029441;28;20072;-73
2023/03/24 03:22:50;;;;;;;14.63;7.78;;;6.50;99.90;;;;;;5032354;28;20029;-74
2023/03/24 03:25:22;;;;;;;15.55;8.18;;;6.40;99.90;;;;;;5014586;28;20040;-75
2023/03/24 03:27:51;;;;;;;12.05;8.13;;;6.50;99.90;;;;;;5032213;28;20029;-74
2023/03/24 03:30:27;;;;;;;14.05;9.07;;;6.50;99.90;;;;;;5014457;28;20033;-74
2023/03/24 03:33:02;;;;;;;17.10;7.82;;;6.50;99.90;;;;;;5032556;28;20018;-75
2023/03/24 03:35:34;;;;;;;13.30;7.97;;;6.60;99.90;;;;;;5032237;28;20045;-75
2023/03/24 03:38:35;;;;;;;14.95;7.63;;;6.60;99.90;;;;;;5032045;28;20428;-74
2023/03/24 03:41:04;;;;;;;12.90;7.50;;;6.50;99.90;;;;;;4981180;28;20037;-74
2023/03/24 03:43:32;;;;;;;12.82;7.85;;;6.50;99.90;;;;;;5032290;28;20100;-75
2023/03/24 03:45:59;;;;;;;14.07;7.63;;;6.40;99.90;;;;;;5013896;28;20548;-75
2023/03/24 03:48:26;;;;;;;14.30;7.93;;;6.40;99.90;;;;;;5032127;28;20035;-74
2023/03/24 03:50:54;;;;;;;12.65;8.35;;;6.40;99.90;;;;;;5014303;28;20179;-74
2023/03/24 03:53:25;;;;;;;11.00;7.45;;;6.40;99.90;;;;;;5032252;28;20048;-74
2023/03/24 03:55:52;;;;;;;16.45;7.38;;;6.50;99.90;;;;;;5031834;28;20041;-75
2023/03/24 03:58:18;;;;;;;14.82;8.15;;;6.50;99.90;;;;;;5014177;28;20087;-74
2023/03/24 04:00:44;;;;;;;16.15;8.27;;;6.60;99.90;;;;;;5030780;28;20026;-75
2023/03/24 04:03:16;;;;;;;13.93;7.85;;;6.50;99.90;;;;;;5032195;28;20110;-75
2023/03/24 04:05:56;;;;;;;14.60;9.10;;;6.40;99.90;;;;;;5030778;28;20473;-75
2023/03/24 04:08:46;;;;;;;13.63;7.82;;;6.30;99.90;;;;;;5031600;28;20021;-74
2023/03/24 04:11:36;;;;;;;19.45;7.93;;;6.40;99.90;;;;;;5014451;28;20037;-74
2023/03/24 04:14:23;;;;;;;12.25;8.05;;;6.40;99.90;;;;;;5014561;28;20036;-75
2023/03/24 04:17:00;;;;;;;15.05;8.32;;;6.40;99.90;;;;;;5030590;28;20033;-75
2023/03/24 04:19:36;;;;;;;11.30;8.20;;;6.30;99.90;;;;;;5031711;28;20021;-74
2023/03/24 04:22:30;;;;;;;11.50;7.75;;;6.30;99.90;;;;;;5032228;28;20121;-75
2023/03/24 04:25:11;;;;;;;15.10;9.07;;;6.30;99.90;;;;;;5031841;28;20236;-75
2023/03/24 04:27:55;;;;;;;14.90;8.02;;;6.30;99.90;;;;;;5031595;28;20021;-74
2023/03/24 04:30:29;;;;;;;16.48;8.73;;;6.30;99.90;;;;;;5031763;28;20022;-75
2023/03/24 04:32:57;;;;;;;13.07;8.07;;;6.30;99.90;;;;;;5032164;28;20017;-74
2023/03/24 04:35:43;;;;;;;13.25;7.82;;;6.40;99.90;;;;;;5031712;28;20022;-75
2023/03/24 04:38:21;;;;;;;17.25;8.63;;;6.30;99.90;;;;;;5031669;28;20031;-74
2023/03/24 04:40:50;;;;;;;10.60;7.75;;;6.30;99.90;;;;;;5014372;28;20033;-74
2023/03/24 04:43:19;;;;;;;13.70;7.63;;;6.40;99.90;;;;;;5031975;28;20028;-75
2023/03/24 04:45:48;;;;;;;16.88;9.10;;;6.30;99.90;;;;;;5030180;28;20026;-75
2023/03/24 04:48:16;;;;;;;19.00;8.55;;;6.30;99.90;;;;;;5013744;28;20028;-75
2023/03/24 04:50:48;;;;;;;22.05;9.50;;;6.50;99.90;;;;;;5031515;28;20512;-74
2023/03/24 04:53:14;;;;;;;11.02;7.18;;;6.40;99.90;;;;;;5014287;28;20116;-74
2023/03/24 04:55:48;;;;;;;10.55;7.88;;;6.30;99.90;;;;;;5030363;28;20060;-75
2023/03/24 04:58:15;;;;;;;11.85;7.78;;;6.20;99.90;;;;;;5031875;28;20045;-75
2023/03/24 05:00:42;;;;;;;13.73;8.02;;;6.20;99.90;;;;;;5031612;28;20072;-75
2023/03/24 05:03:12;;;;;;;15.18;8.23;;;6.10;99.90;;;;;;5013890;28;20072;-76
2023/03/24 05:05:42;;;;;;;16.05;8.95;;;6.10;99.90;;;;;;5031450;28;20022;-74
2023/03/24 05:08:09;;;;;;;15.23;9.35;;;6.10;99.90;;;;;;5031333;28;20080;-75
2023/03/24 05:10:35;;;;;;;16.13;10.13;;;6.10;99.90;;;;;;5031566;28;20049;-75
2023/03/24 05:13:01;;;;;;;14.55;9.02;;;6.10;99.90;;;;;;5032831;28;20068;-76
2023/03/24 05:15:27;;;;;;;18.75;8.85;;;6.30;99.90;;;;;;5034953;28;20379;-73
2023/03/24 05:17:53;;;;;;;15.32;9.38;;;6.40;99.90;;;;;;5034811;28;20383;-74
2023/03/24 05:20:19;;;;;;;11.90;8.77;;;6.40;99.90;;;;;;5033710;28;20029;-74
2023/03/24 05:22:44;;;;;;;19.25;10.10;;;6.40;99.90;;;;;;5034941;28;20036;-75
2023/03/24 05:25:10;;;;;;;17.98;10.32;;;6.40;99.90;;;;;;5034676;28;20036;-75
2023/03/24 05:27:36;;;;;;;13.65;9.57;;;6.40;99.90;;;;;;5017050;28;20032;-75
2023/03/24 05:30:04;;;;;;;15.68;8.18;;;6.40;99.90;;;;;;5034911;28;20108;-74
2023/03/24 05:32:29;;;;;;;14.27;9.02;;;6.50;99.90;;;;;;5017350;28;20033;-74
2023/03/24 05:34:55;;;;;;;16.77;9.40;;;6.50;99.90;;;;;;5033732;28;20398;-75
2023/03/24 05:37:21;;;;;;;14.40;9.00;;;6.50;99.90;;;;;;5038744;28;20028;-74
2023/03/24 05:39:47;;;;;;;13.60;9.48;;;6.50;99.90;;;;;;5036654;28;20035;-73
2023/03/24 05:42:15;;;;;;;13.05;8.55;;;6.50;99.90;;;;;;5034615;28;20037;-74
2023/03/24 05:44:41;;;;;;;18.27;8.60;;;6.60;99.90;;;;;;5016834;28;21300;-73
2023/03/24 05:47:08;;;;;;;14.07;9.55;;;6.60;99.90;;;;;;5037019;28;20052;-74
2023/03/24 05:49:33;;;;;;;14.25;10.25;;;6.70;99.90;;;;;;5023710;28;20525;-75
2023/03/24 05:51:59;;;;;;;18.80;9.35;;;7.50;99.90;;;;;;5041558;28;20041;-75
2023/03/24 05:54:25;;;;;;;15.27;9.88;;;7.40;99.90;;;;;;5036099;28;20021;-75
2023/03/24 05:56:51;;;;;;;19.55;9.80;;;7.30;99.90;;;;;;5035978;28;20039;-75
2023/03/24 05:59:16;;;;;;;15.35;9.98;;;7.30;99.90;;;;;;5035265;28;20091;-75
2023/03/24 06:01:42;;;;;;;16.20;9.05;;;7.20;99.90;;;;;;5036148;28;20469;-76
2023/03/24 06:04:08;;;;;;;16.10;8.63;;;7.20;99.90;;;;;;5037565;28;20030;-75
2023/03/24 06:06:34;;;;;;;18.52;9.45;;;7.20;99.90;;;;;;5038093;28;20024;-74
2023/03/24 06:09:03;;;;;;;20.77;10.60;;;7.20;99.90;;;;;;5038444;28;20029;-76
2023/03/24 06:11:29;;;;;;;14.85;9.38;;;7.20;99.90;;;;;;5019933;28;20033;-75
2023/03/24 06:13:58;;;;;;;15.50;8.68;;;7.30;99.90;;;;;;5037877;28;20022;-74
2023/03/24 06:16:28;;;;;;;14.77;9.25;;;7.30;99.90;;;;;;5022570;28;20025;-75
2023/03/24 06:18:53;;;;;;;14.13;9.95;;;7.50;99.90;;;;;;5041162;28;20092;-75
2023/03/24 06:21:20;;;;;;;15.35;10.80;;;7.50;99.90;;;;;;5040003;28;20072;-75
2023/03/24 06:23:46;;;;;;;18.30;9.35;;;7.60;99.90;;;;;;5040442;28;20033;-75
2023/03/24 06:26:13;;;;;;;19.40;10.13;;;7.60;99.90;;;;;;5038401;28;20476;-75
2023/03/24 06:28:40;;;;;;;13.10;9.32;;;7.70;99.90;;;;;;5018025;28;20029;-75
2023/03/24 06:31:17;;;;;;;16.30;9.23;;;7.80;99.90;;;;;;5034452;28;20021;-75
2023/03/24 06:33:43;;;;;;;20.65;12.05;;;7.80;99.90;;;;;;5016584;28;20060;-75
2023/03/24 06:36:11;;;;;;;25.65;12.23;;;7.90;99.90;;;;;;5033971;28;20049;-75
2023/03/24 06:38:37;;;;;;;15.45;10.02;;;8.10;99.90;;;;;;5016636;28;20021;-76
2023/03/24 06:41:04;;;;;;;18.90;10.45;;;8.20;99.90;;;;;;5034780;28;20052;-77
2023/03/24 06:43:30;;;;;;;20.92;10.27;;;8.20;99.90;;;;;;5018285;28;20029;-77
2023/03/24 06:45:56;;;;;;;13.68;9.85;;;8.30;99.90;;;;;;5019142;28;20414;-78
2023/03/24 06:48:22;;;;;;;27.80;10.68;;;8.40;99.90;;;;;;5037020;28;20030;-78
2023/03/24 06:50:48;;;;;;;24.75;10.07;;;8.50;99.90;;;;;;5035026;28;20021;-77
2023/03/24 06:53:13;;;;;;;13.43;9.57;;;8.80;99.90;;;;;;5036319;28;20028;-77
2023/03/24 06:55:39;;;;;;;15.18;9.65;;;9.10;99.90;;;;;;5036159;28;20030;-76
2023/03/24 06:58:05;;;;;;;18.10;10.65;;;9.30;99.90;;;;;;5018409;28;20029;-78
2023/03/24 07:00:31;;;;;;;14.23;9.65;;;9.60;99.90;;;;;;5035758;28;20025;-76
2023/03/24 07:02:57;;;;;;;13.57;9.25;;;9.90;99.90;;;;;;5036291;28;20025;-77
2023/03/24 07:05:22;;;;;;;11.27;8.85;;;10.10;99.90;;;;;;5034942;28;20107;-77
2023/03/24 07:07:51;;;;;;;18.63;9.70;;;10.40;99.90;;;;;;5037044;28;20044;-77
2023/03/24 07:10:18;;;;;;;13.00;8.25;;;10.60;99.90;;;;;;5033658;28;20505;-77
2023/03/24 07:12:44;;;;;;;12.15;8.00;;;10.80;99.90;;;;;;5035299;28;20029;-77
2023/03/24 07:15:10;;;;;;;13.63;8.10;;;11.00;99.90;;;;;;5036991;28;20045;-79
2023/03/24 07:17:36;;;;;;;11.23;8.07;;;11.20;99.90;;;;;;5017511;28;20032;-76
2023/03/24 07:20:07;;;;;;;9.88;7.45;;;11.40;99.90;;;;;;5033769;28;20021;-76
2023/03/24 07:22:34;;;;;;;11.07;8.05;;;11.60;99.90;;;;;;5017705;28;20026;-78
2023/03/24 07:25:03;;;;;;;7.78;6.18;;;11.70;99.90;;;;;;5017474;28;20057;-78
2023/03/24 07:27:31;;;;;;;10.90;6.63;;;11.90;99.90;;;;;;5034964;28;20033;-77
2023/03/24 07:29:57;;;;;;;10.70;6.75;;;12.10;99.90;;;;;;5019448;28;20029;-77
2023/03/24 07:32:23;;;;;;;12.65;7.35;;;12.90;99.90;;;;;;5034133;28;20494;-76
2023/03/24 07:34:49;;;;;;;14.80;7.05;;;12.80;99.90;;;;;;5016711;28;20069;-78
2023/03/24 07:37:15;;;;;;;9.30;7.22;;;12.80;99.90;;;;;;5033959;28;20017;-76
2023/03/24 07:39:41;;;;;;;10.10;7.50;;;12.80;99.90;;;;;;5034159;28;20029;-76
2023/03/24 07:42:06;;;;;;;14.10;7.47;;;12.90;99.90;;;;;;5038990;28;20104;-78
2023/03/24 07:44:32;;;;;;;8.82;7.28;;;13.00;99.90;;;;;;5034358;28;20026;-77
2023/03/24 07:46:58;;;;;;;11.68;7.70;;;13.10;99.90;;;;;;5016710;28;20034;-78
2023/03/24 07:49:23;;;;;;;19.58;8.38;;;13.20;99.90;;;;;;5034198;28;20111;-77
2023/03/24 07:51:49;;;;;;;9.85;7.68;;;13.20;99.90;;;;;;5032132;28;20029;-77
2023/03/24 07:54:15;;;;;;;10.93;7.50;;;13.40;99.90;;;;;;5033346;28;20018;-77
2023/03/24 07:56:40;;;;;;;10.43;6.20;;;13.50;99.90;;;;;;5033974;28;20044;-78
2023/03/24 07:59:08;;;;;;;9.45;6.93;;;13.70;99.90;;;;;;5015925;28;20084;-77
2023/03/24 08:01:35;;;;;;;11.77;6.82;;;13.80;99.90;;;;;;5033322;28;20085;-76
2023/03/24 08:04:03;;;;;;;10.75;7.47;;;13.90;99.90;;;;;;5031968;28;20025;-77
2023/03/24 08:06:29;;;;;;;7.13;5.80;;;14.20;99.90;;;;;;5033009;28;20028;-77
2023/03/24 08:08:54;;;;;;;11.48;7.05;;;14.30;99.90;;;;;;5034297;28;20100;-77
2023/03/24 08:11:20;;;;;;;10.75;7.13;;;14.50;99.90;;;;;;5034479;28;20444;-77
2023/03/24 08:13:46;;;;;;;11.05;8.25;;;14.70;99.90;;;;;;5016556;28;20048;-79
2023/03/24 08:16:12;;;;;;;9.98;7.07;;;14.70;99.90;;;;;;5033927;28;20029;-77
2023/03/24 08:18:38;;;;;;;10.75;7.43;;;14.70;99.90;;;;;;5016508;28;20033;-77
2023/03/24 08:21:03;;;;;;;9.93;6.60;;;14.90;99.60;;;;;;5038152;28;20468;-80
2023/03/24 08:23:29;;;;;;;10.82;7.00;;;15.10;99.40;;;;;;5039379;28;20225;-79
2023/03/24 08:25:55;;;;;;;13.45;7.20;;;15.30;98.70;;;;;;5019677;28;20028;-77
2023/03/24 08:28:21;;;;;;;7.90;6.05;;;15.40;99.10;;;;;;5033291;28;20026;-78
2023/03/24 08:30:46;;;;;;;8.32;6.15;;;15.60;98.80;;;;;;5034578;28;20018;-77
2023/03/24 08:33:14;;;;;;;8.45;6.45;;;15.80;99.00;;;;;;5034445;28;20021;-77
2023/03/24 08:35:39;;;;;;;8.43;6.32;;;16.00;98.50;;;;;;5034314;28;20026;-78
2023/03/24 08:38:07;;;;;;;10.00;6.38;;;16.10;97.60;;;;;;5038550;28;20032;-78
2023/03/24 08:40:34;;;;;;;9.40;6.28;;;16.40;97.70;;;;;;5038765;28;20100;-78
2023/03/24 08:43:03;;;;;;;9.45;6.95;;;16.50;97.10;;;;;;5021641;28;20095;-78
2023/03/24 08:45:31;;;;;;;11.25;6.03;;;16.70;96.30;;;;;;5038442;28;20030;-78
2023/03/24 08:47:59;;;;;;;14.70;6.28;;;16.90;96.00;;;;;;5022458;28;20041;-78
2023/03/24 08:50:31;;;;;;;10.88;5.50;;;17.00;95.10;;;;;;5042348;28;20049;-77
2023/03/24 08:52:57;;;;;;;11.02;5.18;;;17.10;94.40;;;;;;5039153;28;20100;-78
2023/03/24 08:55:23;;;;;;;8.98;5.55;;;17.20;94.60;;;;;;5038721;28;20048;-78
2023/03/24 08:57:49;;;;;;;7.45;5.72;;;17.40;94.60;;;;;;5039469;28;20397;-77
2023/03/24 09:00:17;;;;;;;8.77;5.47;;;17.60;93.60;;;;;;5022146;28;20508;-79
2023/03/24 09:02:48;;;;;;;12.73;6.43;;;17.80;92.80;;;;;;5022229;28;20030;-76
2023/03/24 09:05:15;;;;;;;9.40;6.10;;;17.90;92.40;;;;;;5039271;28;20108;-79
2023/03/24 09:07:41;;;;;;;18.65;5.90;;;18.00;92.00;;;;;;5039404;28;20108;-81
2023/03/24 09:10:09;;;;;;;9.25;5.68;;;18.10;91.90;;;;;;5020832;28;20057;-77
2023/03/24 09:12:36;;;;;;;7.15;5.85;;;18.10;91.70;;;;;;5020491;28;20120;-81
2023/03/24 09:15:03;;;;;;;11.68;6.47;;;18.20;91.10;;;;;;5037895;28;20131;-77
2023/03/24 09:17:29;;;;;;;8.35;6.35;;;18.20;90.70;;;;;;5037967;28;20064;-77
2023/03/24 09:19:55;;;;;;;7.85;5.32;;;18.40;91.50;;;;;;5019524;28;20032;-78
2023/03/24 09:22:21;;;;;;;11.40;4.93;;;18.60;90.70;;;;;;5020169;28;20025;-77
2023/03/24 09:24:48;;;;;;;7.50;6.10;;;18.80;90.10;;;;;;5038174;28;20021;-77
2023/03/24 09:27:15;;;;;;;11.75;6.00;;;18.80;90.00;;;;;;5019461;28;20062;-74
2023/03/24 09:29:41;;;;;;;10.45;5.18;;;19.00;90.80;;;;;;5020444;28;20057;-77
2023/03/24 09:32:06;;;;;;;10.45;6.00;;;19.00;86.70;;;;;;5038302;28;20021;-77
2023/03/24 09:34:32;;;;;;;7.55;5.00;;;19.20;86.90;;;;;;5036972;28;20060;-77
2023/03/24 09:36:59;;;;;;;7.35;5.45;;;19.20;86.70;;;;;;5035746;28;20470;-76
2023/03/24 09:39:26;;;;;;;7.13;5.03;;;19.20;84.70;;;;;;5036171;28;20026;-83
2023/03/24 09:41:53;;;;;;;8.27;5.43;;;19.40;84.00;;;;;;5021320;28;20029;-80
2023/03/24 09:44:32;;;;;;;7.15;5.38;;;19.40;83.00;;;;;;5019615;28;20181;-81
2023/03/24 09:47:01;;;;;;;6.97;5.05;;;19.40;81.70;;;;;;5020029;28;20036;-79
2023/03/24 09:49:30;;;;;;;7.35;5.47;;;19.60;82.20;;;;;;5038448;28;20075;-78
2023/03/24 09:52:06;;;;;;;7.20;5.30;;;19.50;80.10;;;;;;5042888;28;20072;-82
2023/03/24 09:54:44;;;;;;;11.00;5.50;;;19.50;79.80;;;;;;5017692;28;20041;-77
2023/03/24 09:57:43;;;;;;;11.52;6.78;;;19.60;79.10;;;;;;5034316;28;20022;-79
2023/03/24 10:00:18;;;;;;;7.30;5.13;;;19.50;78.20;;;;;;5019073;28;20040;-76
2023/03/24 10:02:44;;;;;;;8.00;5.35;;;19.60;79.30;;;;;;5034463;28;20113;-76
2023/03/24 10:05:39;;;;;;;6.60;5.60;;;19.80;80.80;;;;;;5035083;28;20068;-78
2023/03/24 10:08:16;;;;;;;6.68;5.95;;;20.00;81.00;;;;;;5034121;28;20394;-77
2023/03/24 10:10:55;;;;;;;9.20;5.10;;;20.20;77.90;;;;;;5017283;28;20021;-75
2023/03/24 10:13:31;;;;;;;8.43;5.68;;;20.30;78.00;;;;;;5017456;28;20568;-77
2023/03/24 10:16:15;;;;;;;7.68;5.75;;;20.40;75.50;;;;;;5017063;28;20021;-77
2023/03/24 10:19:09;;;;;;;11.02;5.70;;;20.40;74.90;;;;;;5033621;28;20509;-76
2023/03/24 10:21:39;;;;;;;8.48;4.82;;;20.40;73.40;;;;;;5017863;28;20052;-76
2023/03/24 10:24:17;;;;;;;8.30;5.88;;;20.40;74.80;;;;;;5035997;28;20013;-77
2023/03/24 10:26:59;;;;;;;8.02;5.30;;;20.70;74.20;;;;;;5035467;28;20022;-77
2023/03/24 10:29:35;;;;;;;14.45;5.85;;;20.80;72.90;;;;;;5035039;28;20053;-77
2023/03/24 10:32:22;;;;;;;7.20;4.63;;;21.10;71.70;;;;;;5017276;28;20497;-76
2023/03/24 10:34:55;;;;;;;7.85;5.20;;;21.20;68.80;;;;;;5016430;28;20060;-77
2023/03/24 10:37:21;;;;;;;8.90;5.53;;;21.20;66.80;;;;;;5017200;28;20033;-77
2023/03/24 10:39:47;;;;;;;8.48;5.57;;;21.30;65.00;;;;;;5035726;28;20021;-77
2023/03/24 10:42:25;;;;;;;7.20;5.20;;;21.30;66.00;;;;;;5018092;28;20033;-77
2023/03/24 10:44:51;;;;;;;12.25;5.70;;;21.20;65.60;;;;;;5035280;28;20029;-77
2023/03/24 10:47:25;;;;;;;6.45;4.60;;;21.10;65.90;;;;;;5036020;28;20108;-77
2023/03/24 10:50:00;;;;;;;7.10;4.80;;;21.30;67.30;;;;;;5035782;28;20478;-77
2023/03/24 10:52:28;;;;;;;6.50;4.93;;;21.40;67.30;;;;;;5035996;28;20051;-78
2023/03/24 10:55:02;;;;;;;6.43;4.18;;;21.60;67.60;;;;;;5017530;28;20394;-77
2023/03/24 10:57:30;;;;;;;12.25;5.07;;;21.80;65.40;;;;;;5017950;28;20021;-78
2023/03/24 10:59:58;;;;;;;6.75;4.18;;;22.00;63.90;;;;;;5036374;28;20030;-77
2023/03/24 11:02:28;;;;;;;8.88;4.93;;;21.80;63.50;;;;;;5035666;28;20036;-77
2023/03/24 11:05:11;;;;;;;8.60;4.97;;;21.80;63.40;;;;;;5035083;28;20056;-76
2023/03/24 11:08:10;;;;;;;8.25;4.75;;;22.00;63.90;;;;;;5017038;28;20065;-76
2023/03/24 11:10:35;;;;;;;8.02;5.65;;;22.10;62.30;;;;;;5016875;28;20030;-76
2023/03/24 11:13:03;;;;;;;7.25;5.03;;;21.80;61.50;;;;;;5017629;28;20117;-77
2023/03/24 11:15:31;;;;;;;7.90;5.20;;;21.80;60.70;;;;;;5034928;28;20048;-77
2023/03/24 11:18:11;;;;;;;8.15;5.18;;;21.60;61.00;;;;;;5033879;28;20027;-77
2023/03/24 11:20:59;;;;;;;10.43;4.90;;;21.50;60.80;;;;;;5033704;28;20112;-78
2023/03/24 11:23:30;;;;;;;6.63;4.90;;;21.60;61.00;;;;;;5036514;28;20067;-79
2023/03/24 11:26:21;;;;;;;10.00;5.03;;;21.80;60.80;;;;;;5016943;28;20048;-76
2023/03/24 11:28:51;;;;;;;12.23;4.43;;;21.70;60.50;;;;;;5017981;28;20022;-77
2023/03/24 11:31:29;;;;;;;9.30;5.20;;;21.70;62.00;;;;;;5036959;28;20072;-77
2023/03/24 11:34:08;;;;;;;8.45;4.07;;;21.70;62.50;;;;;;5039056;28;20041;-78
2023/03/24 11:36:56;;;;;;;5.93;4.30;;;21.70;62.70;;;;;;5038771;28;20025;-77
2023/03/24 11:39:30;;;;;;;9.95;4.85;;;21.60;61.90;;;;;;5036454;28;20021;-77
2023/03/24 11:42:01;;;;;;;8.07;4.95;;;21.60;63.40;;;;;;5034491;28;20169;-77
2023/03/24 11:44:50;;;;;;;5.65;4.38;;;21.70;61.10;;;;;;5036926;28;20021;-77
2023/03/24 11:47:35;;;;;;;5.22;4.72;;;21.90;60.20;;;;;;5019431;28;20032;-76
2023/03/24 11:50:09;;;;;;;8.55;4.30;;;22.10;61.60;;;;;;5036168;28;20116;-76
2023/03/24 11:53:09;;;;;;;5.75;4.15;;;22.10;60.30;;;;;;5032674;28;20482;-77
2023/03/24 11:55:47;;;;;;;6.47;4.15;;;22.10;60.90;;;;;;5030135;28;20025;-75
2023/03/24 11:58:48;;;;;;;7.32;4.57;;;22.30;58.80;;;;;;5014464;28;20390;-77
2023/03/24 12:01:17;;;;;;;5.18;4.68;;;22.30;59.30;;;;;;5033018;28;20474;-76
2023/03/24 12:04:15;;;;;;;7.05;4.30;;;22.30;58.90;;;;;;5032446;28;20053;-76
2023/03/24 12:07:19;;;;;;;5.68;4.45;;;22.30;57.90;;;;;;5007520;28;20502;-75
2023/03/24 12:09:53;;;;;;;6.20;4.63;;;22.20;57.80;;;;;;5033126;28;20091;-77
2023/03/24 12:12:50;;;;;;;9.32;4.50;;;22.00;57.80;;;;;;5032837;28;20026;-77
2023/03/24 12:15:35;;;;;;;6.05;4.25;;;21.90;58.30;;;;;;5015996;28;20127;-78
2023/03/24 12:18:19;;;;;;;5.13;3.80;;;21.80;58.00;;;;;;5033834;28;20022;-76
2023/03/24 12:21:06;;;;;;;5.18;3.40;;;22.10;58.20;;;;;;5032879;28;20029;-78
2023/03/24 12:23:41;;;;;;;5.32;4.15;;;22.10;58.20;;;;;;5037169;28;20075;-77
2023/03/24 12:26:33;;;;;;;6.37;4.17;;;22.30;57.80;;;;;;5038112;28;20466;-78
2023/03/24 12:29:34;;;;;;;5.50;3.47;;;22.10;57.80;;;;;;5017926;28;20029;-77
2023/03/24 12:32:20;;;;;;;6.65;4.20;;;22.10;56.40;;;;;;5034928;28;20060;-77
2023/03/24 12:35:11;;;;;;;5.22;4.00;;;22.10;56.90;;;;;;5035730;28;20021;-76
2023/03/24 12:38:09;;;;;;;6.03;3.92;;;22.10;57.10;;;;;;5034465;28;20029;-77
2023/03/24 12:40:45;;;;;;;4.88;3.50;;;22.30;57.20;;;;;;5017988;28;20034;-77
2023/03/24 12:43:25;;;;;;;6.22;3.35;;;22.30;55.50;;;;;;5036831;28;20106;-76
2023/03/24 12:45:54;;;;;;;5.72;3.83;;;22.40;55.30;;;;;;5035836;28;20502;-77
2023/03/24 12:48:54;;;;;;;6.88;4.03;;;22.40;55.30;;;;;;5035422;28;20036;-77
2023/03/24 12:51:26;;;;;;;5.75;4.68;;;22.30;55.20;;;;;;5037482;28;20033;-76
2023/03/24 12:54:24;;;;;;;6.40;4.15;;;22.30;55.70;;;;;;5020900;28;20486;-77
2023/03/24 12:57:00;;;;;;;7.53;4.55;;;22.30;55.80;;;;;;5037517;28;20025;-77
2023/03/24 12:59:33;;;;;;;5.93;4.35;;;22.20;56.40;;;;;;5017785;28;20075;-77
2023/03/24 13:02:19;;;;;;;4.90;4.13;;;22.20;55.90;;;;;;5035973;28;20021;-78
2023/03/24 13:04:46;;;;;;;7.13;4.30;;;22.20;56.00;;;;;;5035585;28;20387;-76
2023/03/24 13:07:20;;;;;;;6.93;3.63;;;22.00;56.00;;;;;;5017728;28;20108;-77
2023/03/24 13:09:52;;;;;;;5.85;3.85;;;21.90;55.80;;;;;;5016929;28;20029;-77
2023/03/24 13:12:26;;;;;;;5.97;4.55;;;22.00;56.20;;;;;;5036786;28;20545;-77